Time;durP1;ratioP1;P1;durP2;ratioP2;P2;SDS_P1;SDS_P2;PMS_P1;PMS_P2;Temp;Humidity;BMP_temperature;BMP_pressure;BME280_temperature;BME280_humidity;BME280_pressure;Samples;Min_cycle;Max_cycle;Signal;HPM_P1;HPM_P2
2023/10/28 00:00:08;;;;;;;5.93;1.80;;;17.50;65.10;;;;;;348416;28;912;-57
2023/10/28 00:00:19;;;;;;;7.50;1.90;;;17.50;65.10;;;;;;348350;28;1098;-57
2023/10/28 00:00:30;;;;;;;7.80;1.90;;;17.50;65.10;;;;;;348257;28;1007;-57
2023/10/28 00:00:40;;;;;;;8.00;2.03;;;17.50;65.10;;;;;;348434;28;964;-57
2023/10/28 00:00:51;;;;;;;6.63;1.90;;;17.50;65.10;;;;;;348284;28;1028;-57
2023/10/28 00:01:02;;;;;;;6.80;2.20;;;17.50;65.20;;;;;;348331;28;905;-57
2023/10/28 00:01:14;;;;;;;7.85;2.42;;;17.60;65.30;;;;;;348391;28;992;-58
2023/10/28 00:01:26;;;;;;;7.07;2.45;;;17.60;65.20;;;;;;348354;28;1122;-57
2023/10/28 00:01:37;;;;;;;6.32;2.25;;;17.50;65.20;;;;;;348306;28;1078;-57
2023/10/28 00:01:48;;;;;;;6.22;2.05;;;17.60;65.20;;;;;;348327;28;1087;-56
2023/10/28 00:01:59;;;;;;;7.40;2.03;;;17.50;65.10;;;;;;348359;28;1071;-58
2023/10/28 00:02:10;;;;;;;6.80;2.03;;;17.60;65.00;;;;;;348435;28;856;-57
2023/10/28 00:02:22;;;;;;;4.97;1.88;;;17.50;64.90;;;;;;348224;28;1111;-58
2023/10/28 00:02:33;;;;;;;5.20;1.80;;;17.50;64.70;;;;;;348366;28;1946;-57
2023/10/28 00:02:45;;;;;;;6.43;1.85;;;17.50;64.60;;;;;;348426;28;920;-58
2023/10/28 00:02:56;;;;;;;6.65;1.92;;;17.50;64.70;;;;;;348379;28;1926;-57
2023/10/28 00:03:06;;;;;;;6.25;2.13;;;17.50;64.70;;;;;;348275;28;1902;-57
2023/10/28 00:03:17;;;;;;;6.03;2.13;;;17.50;64.60;;;;;;348292;28;798;-57
2023/10/28 00:03:28;;;;;;;7.25;2.20;;;17.50;64.60;;;;;;348305;28;857;-57
2023/10/28 00:03:40;;;;;;;6.75;1.90;;;17.50;64.60;;;;;;348300;28;1095;-56
2023/10/28 00:03:50;;;;;;;6.22;1.95;;;17.50;64.70;;;;;;348246;28;1001;-56
2023/10/28 00:04:02;;;;;;;5.50;1.80;;;17.50;64.60;;;;;;348310;28;1155;-57
2023/10/28 00:04:13;;;;;;;4.85;1.90;;;17.50;64.60;;;;;;348319;28;1252;-57
2023/10/28 00:04:24;;;;;;;4.45;1.83;;;17.50;64.60;;;;;;348337;28;830;-57
2023/10/28 00:04:34;;;;;;;4.53;1.85;;;17.60;64.60;;;;;;348312;28;987;-58
2023/10/28 00:04:45;;;;;;;3.88;1.60;;;17.60;64.60;;;;;;348367;28;1079;-57
2023/10/28 00:04:58;;;;;;;4.93;1.80;;;17.60;64.60;;;;;;348295;28;1284;-57
2023/10/28 00:05:09;;;;;;;4.90;1.88;;;17.60;64.60;;;;;;348416;28;1047;-58
2023/10/28 00:05:20;;;;;;;5.30;2.08;;;17.60;64.40;;;;;;348236;28;1115;-58
2023/10/28 00:05:31;;;;;;;5.10;2.10;;;17.60;64.40;;;;;;348404;28;861;-57
2023/10/28 00:05:42;;;;;;;5.57;2.00;;;17.60;64.40;;;;;;348413;28;949;-58
2023/10/28 00:05:53;;;;;;;6.03;1.88;;;17.60;64.40;;;;;;348384;28;2054;-57
2023/10/28 00:06:04;;;;;;;6.43;1.90;;;17.50;64.40;;;;;;348295;28;1004;-58
2023/10/28 00:06:15;;;;;;;5.47;1.85;;;17.50;64.40;;;;;;348372;28;1115;-57
2023/10/28 00:06:26;;;;;;;5.38;1.80;;;17.50;64.50;;;;;;348338;28;1143;-57
2023/10/28 00:06:36;;;;;;;5.37;1.70;;;17.50;64.50;;;;;;348244;28;1052;-57
2023/10/28 00:06:47;;;;;;;5.30;1.75;;;17.60;64.60;;;;;;348344;28;1158;-57
2023/10/28 00:06:58;;;;;;;5.00;1.92;;;17.60;64.70;;;;;;348433;28;1012;-57
2023/10/28 00:07:09;;;;;;;6.00;2.10;;;17.60;64.70;;;;;;348261;28;2684;-57
2023/10/28 00:07:19;;;;;;;5.63;2.03;;;17.60;64.70;;;;;;348418;28;952;-57
2023/10/28 00:07:30;;;;;;;6.68;2.03;;;17.60;64.70;;;;;;348398;28;817;-57
2023/10/28 00:07:41;;;;;;;7.68;2.08;;;17.60;64.70;;;;;;348302;28;987;-58
2023/10/28 00:07:51;;;;;;;7.05;1.92;;;17.60;64.80;;;;;;348354;28;1545;-58
2023/10/28 00:08:03;;;;;;;5.97;1.87;;;17.60;64.80;;;;;;348357;28;1070;-57
2023/10/28 00:08:14;;;;;;;5.35;1.90;;;17.60;64.80;;;;;;348352;28;1166;-57
2023/10/28 00:08:25;;;;;;;7.07;2.13;;;17.60;64.80;;;;;;348310;28;1461;-56
2023/10/28 00:08:36;;;;;;;6.45;2.08;;;17.60;64.90;;;;;;348396;28;925;-57
2023/10/28 00:08:47;;;;;;;6.50;1.92;;;17.60;64.90;;;;;;348237;28;1910;-56
2023/10/28 00:08:58;;;;;;;6.20;1.98;;;17.60;64.80;;;;;;348357;28;1190;-57
2023/10/28 00:09:10;;;;;;;7.38;2.10;;;17.60;64.80;;;;;;348386;28;987;-58
2023/10/28 00:09:21;;;;;;;8.60;2.10;;;17.60;64.80;;;;;;348286;28;905;-58
2023/10/28 00:09:32;;;;;;;8.00;2.00;;;17.60;64.70;;;;;;348349;28;1016;-57
2023/10/28 00:09:42;;;;;;;7.32;1.90;;;17.60;64.60;;;;;;348426;28;979;-56
2023/10/28 00:09:54;;;;;;;6.15;1.95;;;17.60;64.60;;;;;;348304;28;1800;-56
2023/10/28 00:10:07;;;;;;;6.15;1.90;;;17.60;64.70;;;;;;348423;28;1090;-58
2023/10/28 00:10:18;;;;;;;6.55;1.88;;;17.60;64.80;;;;;;348351;28;1119;-57
2023/10/28 00:10:29;;;;;;;7.28;1.77;;;17.60;65.00;;;;;;348272;28;1262;-58
2023/10/28 00:10:41;;;;;;;7.75;1.77;;;17.60;65.00;;;;;;348399;28;1087;-57
2023/10/28 00:10:51;;;;;;;7.22;2.08;;;17.60;65.00;;;;;;348397;28;972;-58
2023/10/28 00:11:07;;;;;;;6.70;2.28;;;17.60;64.90;;;;;;348348;28;1023;-58
2023/10/28 00:11:19;;;;;;;5.35;2.00;;;17.60;64.80;;;;;;348270;28;1114;-57
2023/10/28 00:11:31;;;;;;;5.32;1.77;;;17.60;64.70;;;;;;348370;28;1206;-57
2023/10/28 00:11:42;;;;;;;6.78;1.95;;;17.60;64.70;;;;;;348380;28;1106;-58
2023/10/28 00:11:53;;;;;;;7.78;2.22;;;17.60;64.70;;;;;;348421;28;900;-57
2023/10/28 00:12:04;;;;;;;7.80;2.40;;;17.60;64.70;;;;;;348346;28;2086;-56
2023/10/28 00:12:15;;;;;;;7.50;2.08;;;17.60;64.70;;;;;;348240;28;1011;-57
2023/10/28 00:12:28;;;;;;;6.57;1.83;;;17.60;64.70;;;;;;348347;28;1178;-57
2023/10/28 00:12:39;;;;;;;6.07;1.80;;;17.60;64.70;;;;;;348330;28;1012;-56
2023/10/28 00:12:50;;;;;;;6.13;1.98;;;17.60;64.70;;;;;;348301;28;1309;-57
2023/10/28 00:13:01;;;;;;;5.78;2.00;;;17.60;64.70;;;;;;348396;28;1047;-57
2023/10/28 00:13:12;;;;;;;5.40;2.00;;;17.60;64.70;;;;;;348275;28;1087;-57
2023/10/28 00:13:23;;;;;;;5.60;2.10;;;17.60;64.80;;;;;;348369;28;949;-57
2023/10/28 00:13:33;;;;;;;4.90;1.95;;;17.60;64.80;;;;;;348380;28;873;-58
2023/10/28 00:13:44;;;;;;;4.95;1.77;;;17.60;64.60;;;;;;348346;28;1066;-57
2023/10/28 00:13:55;;;;;;;5.20;1.77;;;17.60;64.50;;;;;;348402;28;1007;-57
2023/10/28 00:14:06;;;;;;;5.95;1.88;;;17.60;64.50;;;;;;348254;28;1314;-57
2023/10/28 00:14:17;;;;;;;5.55;1.73;;;17.60;64.60;;;;;;348418;28;1071;-57
2023/10/28 00:14:28;;;;;;;6.57;1.80;;;17.60;64.70;;;;;;348354;28;1062;-57
2023/10/28 00:14:39;;;;;;;5.77;1.60;;;17.60;64.60;;;;;;348320;28;1063;-56
2023/10/28 00:14:50;;;;;;;6.40;1.80;;;17.60;64.70;;;;;;348301;28;1103;-57
2023/10/28 00:15:01;;;;;;;6.47;2.10;;;17.60;64.70;;;;;;348294;28;1864;-56
2023/10/28 00:15:13;;;;;;;5.22;2.13;;;17.60;64.70;;;;;;348412;28;1031;-56
2023/10/28 00:15:24;;;;;;;4.88;2.00;;;17.60;64.80;;;;;;348368;28;1078;-58
2023/10/28 00:15:35;;;;;;;6.35;1.92;;;17.60;64.80;;;;;;348258;28;1174;-58
2023/10/28 00:15:46;;;;;;;7.95;2.08;;;17.60;64.70;;;;;;348363;28;1070;-57
2023/10/28 00:15:57;;;;;;;8.60;2.15;;;17.60;64.60;;;;;;348293;28;1012;-57
2023/10/28 00:16:08;;;;;;;8.23;2.17;;;17.60;64.60;;;;;;348378;28;1011;-57
2023/10/28 00:16:18;;;;;;;7.23;2.07;;;17.60;64.60;;;;;;348359;28;992;-57
2023/10/28 00:16:29;;;;;;;7.67;2.00;;;17.60;64.60;;;;;;348208;28;1080;-57
2023/10/28 00:16:40;;;;;;;6.85;1.80;;;17.60;64.50;;;;;;348410;28;852;-58
2023/10/28 00:16:51;;;;;;;7.15;1.90;;;17.60;64.40;;;;;;348369;28;917;-57
2023/10/28 00:17:02;;;;;;;5.28;1.85;;;17.60;64.40;;;;;;348262;28;1114;-57
2023/10/28 00:17:13;;;;;;;4.90;1.88;;;17.60;64.40;;;;;;348364;28;1170;-56
2023/10/28 00:17:24;;;;;;;5.55;1.85;;;17.60;64.40;;;;;;348244;28;1711;-58
2023/10/28 00:17:36;;;;;;;6.18;1.90;;;17.60;64.40;;;;;;348382;28;988;-57
2023/10/28 00:17:47;;;;;;;6.10;2.00;;;17.60;64.50;;;;;;348292;28;883;-57
2023/10/28 00:17:58;;;;;;;5.35;1.98;;;17.60;64.50;;;;;;348320;28;901;-57
2023/10/28 00:18:09;;;;;;;5.05;1.77;;;17.60;64.50;;;;;;348335;28;1047;-57
2023/10/28 00:18:20;;;;;;;4.97;1.70;;;17.60;64.60;;;;;;348268;28;1345;-57
2023/10/28 00:18:30;;;;;;;6.10;1.73;;;17.60;64.60;;;;;;348342;28;1242;-57
2023/10/28 00:18:41;;;;;;;7.05;1.75;;;17.60;64.70;;;;;;348369;28;1097;-58
2023/10/28 00:18:52;;;;;;;7.33;1.60;;;17.60;64.70;;;;;;348263;28;1090;-58
2023/10/28 00:19:03;;;;;;;7.38;1.73;;;17.60;64.80;;;;;;348396;28;1002;-57
2023/10/28 00:19:16;;;;;;;6.13;1.60;;;17.60;64.80;;;;;;348260;28;1002;-57
2023/10/28 00:19:28;;;;;;;5.82;1.83;;;17.60;64.80;;;;;;348320;28;1704;-57
2023/10/28 00:19:39;;;;;;;5.07;1.90;;;17.60;64.80;;;;;;348264;28;1027;-57
2023/10/28 00:19:50;;;;;;;5.45;1.88;;;17.60;64.80;;;;;;348348;28;1087;-57
2023/10/28 00:20:05;;;;;;;7.10;1.90;;;17.60;64.80;;;;;;348339;28;1140;-58
2023/10/28 00:20:18;;;;;;;7.00;1.92;;;17.60;64.70;;;;;;348299;28;991;-57
2023/10/28 00:20:29;;;;;;;5.15;1.90;;;17.60;64.60;;;;;;348293;28;1127;-57
2023/10/28 00:20:41;;;;;;;4.18;1.80;;;17.60;64.70;;;;;;348272;28;1410;-57
2023/10/28 00:20:51;;;;;;;5.40;1.83;;;17.60;64.70;;;;;;348406;28;1019;-57
2023/10/28 00:21:03;;;;;;;6.55;1.98;;;17.50;64.70;;;;;;348362;28;1004;-57
2023/10/28 00:21:17;;;;;;;6.40;2.00;;;17.60;64.80;;;;;;348298;28;1023;-57
2023/10/28 00:21:29;;;;;;;6.80;1.90;;;17.60;64.80;;;;;;348365;28;1110;-57
2023/10/28 00:21:40;;;;;;;8.02;1.98;;;17.60;64.70;;;;;;348342;28;1193;-56
2023/10/28 00:21:51;;;;;;;6.90;2.08;;;17.60;64.70;;;;;;348278;28;1019;-57
2023/10/28 00:22:01;;;;;;;7.00;2.08;;;17.60;64.70;;;;;;348285;28;1076;-57
2023/10/28 00:22:12;;;;;;;7.10;1.93;;;17.60;64.70;;;;;;348299;28;1656;-57
2023/10/28 00:22:23;;;;;;;7.10;1.80;;;17.60;64.70;;;;;;348291;28;1087;-57
2023/10/28 00:22:34;;;;;;;7.10;1.80;;;17.60;64.70;;;;;;348352;28;1098;-57
2023/10/28 00:22:49;;;;;;;6.53;1.80;;;17.60;64.70;;;;;;348416;28;1023;-57
2023/10/28 00:23:00;;;;;;;6.38;2.08;;;17.50;64.70;;;;;;348230;28;1024;-56
2023/10/28 00:23:14;;;;;;;5.68;1.90;;;17.60;64.70;;;;;;348351;28;1107;-57
2023/10/28 00:23:25;;;;;;;5.25;1.80;;;17.60;64.70;;;;;;348339;28;1897;-57
2023/10/28 00:23:36;;;;;;;5.65;1.70;;;17.60;64.50;;;;;;348262;28;1166;-57
2023/10/28 00:23:47;;;;;;;6.45;1.70;;;17.50;64.50;;;;;;348334;28;1240;-57
2023/10/28 00:23:58;;;;;;;7.07;1.80;;;17.50;64.50;;;;;;348370;28;1071;-56
2023/10/28 00:24:10;;;;;;;5.90;1.67;;;17.50;64.60;;;;;;348266;28;1011;-56
2023/10/28 00:24:22;;;;;;;5.22;1.60;;;17.60;64.70;;;;;;348355;28;1043;-56
2023/10/28 00:24:32;;;;;;;5.75;1.80;;;17.50;64.70;;;;;;348384;28;1035;-58
2023/10/28 00:24:43;;;;;;;5.70;1.90;;;17.50;64.90;;;;;;348285;28;1024;-57
2023/10/28 00:24:54;;;;;;;7.80;1.85;;;17.50;64.80;;;;;;348345;28;818;-58
2023/10/28 00:25:05;;;;;;;7.63;1.80;;;17.50;64.80;;;;;;348395;28;849;-57
2023/10/28 00:25:16;;;;;;;7.22;1.85;;;17.50;64.80;;;;;;348261;28;1023;-57
2023/10/28 00:25:33;;;;;;;5.68;1.88;;;17.50;64.80;;;;;;348339;28;952;-57
2023/10/28 00:25:45;;;;;;;5.80;1.70;;;17.50;64.90;;;;;;348195;28;1056;-57
2023/10/28 00:26:03;;;;;;;5.95;1.65;;;17.50;64.90;;;;;;348109;28;1059;-56
2023/10/28 00:26:14;;;;;;;6.03;1.73;;;17.50;64.80;;;;;;348355;28;1028;-57
2023/10/28 00:26:24;;;;;;;6.17;1.77;;;17.50;64.70;;;;;;348264;28;798;-57
2023/10/28 00:26:35;;;;;;;6.93;1.70;;;17.50;64.50;;;;;;348326;28;1031;-57
2023/10/28 00:26:47;;;;;;;7.40;1.70;;;17.50;64.60;;;;;;348431;28;1000;-57
2023/10/28 00:26:57;;;;;;;6.55;1.70;;;17.40;64.70;;;;;;348287;28;939;-56
2023/10/28 00:27:09;;;;;;;6.87;1.97;;;17.40;64.70;;;;;;348381;28;1021;-57
2023/10/28 00:27:20;;;;;;;6.90;1.98;;;17.40;64.70;;;;;;348354;28;1102;-57
2023/10/28 00:27:33;;;;;;;7.57;1.80;;;17.40;64.70;;;;;;348264;28;1083;-57
2023/10/28 00:27:44;;;;;;;8.32;1.58;;;17.50;64.80;;;;;;348396;28;885;-57
2023/10/28 00:27:55;;;;;;;7.85;1.77;;;17.40;64.70;;;;;;348369;28;1083;-57
2023/10/28 00:28:06;;;;;;;7.60;1.80;;;17.40;64.80;;;;;;348256;28;1012;-58
2023/10/28 00:28:16;;;;;;;8.05;1.85;;;17.40;64.90;;;;;;348341;28;1003;-59
2023/10/28 00:28:27;;;;;;;7.18;1.77;;;17.40;65.00;;;;;;348274;28;1024;-56
2023/10/28 00:28:39;;;;;;;5.78;1.63;;;17.50;65.10;;;;;;348264;28;1154;-58
2023/10/28 00:28:50;;;;;;;5.15;1.67;;;17.40;65.10;;;;;;348325;28;1202;-58
2023/10/28 00:29:01;;;;;;;5.27;1.80;;;17.50;65.10;;;;;;348303;28;968;-57
2023/10/28 00:29:11;;;;;;;5.50;2.03;;;17.40;65.10;;;;;;348274;28;1008;-57
2023/10/28 00:29:23;;;;;;;5.97;2.10;;;17.50;65.20;;;;;;348329;28;960;-58
2023/10/28 00:29:34;;;;;;;5.20;1.80;;;17.40;65.20;;;;;;348292;28;1205;-57
2023/10/28 00:29:51;;;;;;;5.07;1.70;;;17.50;65.20;;;;;;348281;28;1488;-57
2023/10/28 00:30:03;;;;;;;5.47;1.77;;;17.40;65.10;;;;;;348351;28;1139;-57
2023/10/28 00:30:14;;;;;;;5.95;1.80;;;17.50;64.90;;;;;;348408;28;857;-58
2023/10/28 00:30:26;;;;;;;6.43;1.75;;;17.40;64.80;;;;;;348257;28;1119;-58
2023/10/28 00:30:40;;;;;;;7.32;1.90;;;17.50;64.70;;;;;;348358;28;849;-57
2023/10/28 00:30:51;;;;;;;7.02;1.90;;;17.40;64.80;;;;;;348342;28;871;-58
2023/10/28 00:31:03;;;;;;;6.47;1.75;;;17.40;64.70;;;;;;348244;28;1107;-56
2023/10/28 00:31:19;;;;;;;6.35;1.77;;;17.40;64.60;;;;;;348389;28;1058;-56
2023/10/28 00:31:31;;;;;;;6.13;1.85;;;17.50;64.70;;;;;;348374;28;1043;-58
2023/10/28 00:31:43;;;;;;;6.90;1.70;;;17.40;64.70;;;;;;348280;28;909;-56
2023/10/28 00:31:54;;;;;;;6.45;1.77;;;17.40;64.80;;;;;;348336;28;1098;-56
2023/10/28 00:32:06;;;;;;;6.03;1.80;;;17.50;64.80;;;;;;348369;28;886;-57
2023/10/28 00:32:16;;;;;;;5.63;1.98;;;17.40;64.90;;;;;;348245;28;1065;-57
2023/10/28 00:32:27;;;;;;;6.00;1.87;;;17.40;65.00;;;;;;348265;28;1080;-57
2023/10/28 00:32:38;;;;;;;5.78;1.73;;;17.50;65.00;;;;;;348332;28;1110;-56
2023/10/28 00:32:53;;;;;;;4.60;1.57;;;17.50;65.00;;;;;;348283;28;1045;-57
2023/10/28 00:33:04;;;;;;;5.57;1.70;;;17.40;65.00;;;;;;348324;28;1003;-56
2023/10/28 00:33:15;;;;;;;5.88;1.85;;;17.40;65.00;;;;;;348388;28;1055;-57
2023/10/28 00:33:26;;;;;;;6.88;2.13;;;17.40;65.00;;;;;;348307;28;1483;-57
2023/10/28 00:33:38;;;;;;;6.83;2.20;;;17.40;65.00;;;;;;348289;28;841;-56
2023/10/28 00:33:49;;;;;;;6.50;2.08;;;17.40;65.00;;;;;;348360;28;1872;-57
2023/10/28 00:34:00;;;;;;;6.20;1.92;;;17.40;65.00;;;;;;348289;28;1125;-57
2023/10/28 00:34:11;;;;;;;6.78;1.90;;;17.40;65.00;;;;;;348323;28;1150;-57
2023/10/28 00:34:22;;;;;;;6.37;1.90;;;17.50;65.00;;;;;;348312;28;1166;-58
2023/10/28 00:34:32;;;;;;;6.15;1.83;;;17.40;64.90;;;;;;348266;28;1025;-58
2023/10/28 00:34:43;;;;;;;5.03;1.80;;;17.40;64.90;;;;;;348405;28;872;-58
2023/10/28 00:34:54;;;;;;;5.93;1.92;;;17.40;64.90;;;;;;348348;28;957;-57
2023/10/28 00:35:11;;;;;;;7.00;2.10;;;17.40;64.80;;;;;;348233;28;1130;-57
2023/10/28 00:35:22;;;;;;;7.03;2.22;;;17.30;64.90;;;;;;348098;28;1153;-58
2023/10/28 00:35:33;;;;;;;6.77;2.00;;;17.30;65.00;;;;;;348365;28;936;-57
2023/10/28 00:35:44;;;;;;;7.35;2.05;;;17.40;65.00;;;;;;348261;28;980;-57
2023/10/28 00:35:55;;;;;;;7.05;2.00;;;17.30;65.00;;;;;;348345;28;833;-57
2023/10/28 00:36:07;;;;;;;6.68;2.10;;;17.30;65.10;;;;;;348373;28;833;-57
2023/10/28 00:36:18;;;;;;;7.25;1.85;;;17.30;65.00;;;;;;348290;28;1001;-57
2023/10/28 00:36:29;;;;;;;6.95;1.90;;;17.30;65.10;;;;;;348256;28;1422;-58
2023/10/28 00:36:40;;;;;;;5.95;1.75;;;17.40;65.10;;;;;;348335;28;908;-57
2023/10/28 00:36:51;;;;;;;6.85;1.88;;;17.40;65.20;;;;;;348221;28;1207;-58
2023/10/28 00:37:01;;;;;;;7.45;1.80;;;17.30;65.20;;;;;;348316;28;1134;-57
2023/10/28 00:37:12;;;;;;;6.38;1.83;;;17.40;65.30;;;;;;348357;28;1770;-57
2023/10/28 00:37:23;;;;;;;6.10;1.80;;;17.40;65.40;;;;;;348236;28;1020;-57
2023/10/28 00:37:34;;;;;;;5.72;1.80;;;17.40;65.40;;;;;;348274;28;1004;-58
2023/10/28 00:37:45;;;;;;;5.72;1.60;;;17.40;65.40;;;;;;348347;28;885;-57
2023/10/28 00:37:56;;;;;;;5.60;1.50;;;17.40;65.30;;;;;;348269;28;956;-57
2023/10/28 00:38:07;;;;;;;6.57;1.60;;;17.40;65.40;;;;;;348331;28;912;-57
2023/10/28 00:38:18;;;;;;;7.33;1.80;;;17.40;65.40;;;;;;348333;28;1011;-57
2023/10/28 00:38:29;;;;;;;6.88;1.88;;;17.40;65.30;;;;;;348318;28;912;-57
2023/10/28 00:38:41;;;;;;;6.20;1.85;;;17.40;65.40;;;;;;348400;28;1062;-58
2023/10/28 00:38:52;;;;;;;5.22;1.80;;;17.40;65.40;;;;;;348337;28;1147;-57
2023/10/28 00:39:03;;;;;;;4.95;1.90;;;17.40;65.40;;;;;;348256;28;1154;-58
2023/10/28 00:39:14;;;;;;;5.50;2.00;;;17.40;65.30;;;;;;348230;28;1509;-58
2023/10/28 00:39:24;;;;;;;5.97;1.92;;;17.40;65.20;;;;;;348315;28;913;-57
2023/10/28 00:39:35;;;;;;;5.75;1.92;;;17.40;65.10;;;;;;348296;28;1028;-57
2023/10/28 00:39:46;;;;;;;5.55;1.83;;;17.40;64.90;;;;;;348329;28;924;-57
2023/10/28 00:39:57;;;;;;;4.97;1.75;;;17.30;65.00;;;;;;348372;28;837;-57
2023/10/28 00:40:08;;;;;;;5.90;1.83;;;17.30;65.10;;;;;;348203;28;883;-56
2023/10/28 00:40:19;;;;;;;6.53;1.80;;;17.30;65.10;;;;;;348320;28;984;-56
2023/10/28 00:40:31;;;;;;;7.20;1.88;;;17.30;65.20;;;;;;348334;28;1135;-57
2023/10/28 00:40:42;;;;;;;6.38;1.77;;;17.30;65.30;;;;;;348286;28;980;-57
2023/10/28 00:40:53;;;;;;;7.65;1.83;;;17.30;65.40;;;;;;348368;28;1004;-56
2023/10/28 00:41:03;;;;;;;7.47;1.90;;;17.30;65.50;;;;;;348348;28;1067;-57
2023/10/28 00:41:17;;;;;;;8.00;2.20;;;17.30;65.50;;;;;;348357;28;872;-57
2023/10/28 00:41:27;;;;;;;6.93;2.20;;;17.30;65.50;;;;;;348212;28;1000;-57
2023/10/28 00:41:38;;;;;;;7.97;2.30;;;17.30;65.50;;;;;;348279;28;1068;-57
2023/10/28 00:41:49;;;;;;;7.88;2.13;;;17.30;65.60;;;;;;348368;28;872;-57
2023/10/28 00:42:01;;;;;;;6.75;1.92;;;17.30;65.50;;;;;;348331;28;913;-57
2023/10/28 00:42:13;;;;;;;9.20;1.90;;;17.30;65.60;;;;;;348239;28;1111;-56
2023/10/28 00:42:24;;;;;;;8.90;1.92;;;17.40;65.50;;;;;;348330;28;850;-56
2023/10/28 00:42:36;;;;;;;8.55;2.00;;;17.40;65.50;;;;;;348311;28;923;-57
2023/10/28 00:42:46;;;;;;;7.00;1.85;;;17.30;65.50;;;;;;348293;28;1099;-56
2023/10/28 00:43:00;;;;;;;7.85;1.90;;;17.30;65.60;;;;;;348257;28;1142;-57
2023/10/28 00:43:11;;;;;;;7.88;1.90;;;17.30;65.60;;;;;;348305;28;1106;-57
2023/10/28 00:43:22;;;;;;;8.17;2.10;;;17.40;65.50;;;;;;348288;28;972;-57
2023/10/28 00:43:33;;;;;;;6.35;1.98;;;17.30;65.50;;;;;;348304;28;1337;-57
2023/10/28 00:43:44;;;;;;;5.60;1.98;;;17.40;65.40;;;;;;348334;28;1362;-57
2023/10/28 00:43:55;;;;;;;6.15;1.90;;;17.40;65.30;;;;;;348323;28;980;-57
2023/10/28 00:44:06;;;;;;;7.83;2.30;;;17.40;65.30;;;;;;348292;28;815;-56
2023/10/28 00:44:16;;;;;;;7.57;2.10;;;17.40;65.20;;;;;;348401;28;849;-58
2023/10/28 00:44:32;;;;;;;7.35;2.17;;;17.30;65.30;;;;;;348177;28;1163;-57
2023/10/28 00:44:43;;;;;;;6.32;1.80;;;17.30;65.30;;;;;;348348;28;976;-57
2023/10/28 00:44:56;;;;;;;5.70;1.83;;;17.30;65.30;;;;;;348328;28;924;-57
2023/10/28 00:45:11;;;;;;;5.32;1.60;;;17.30;65.20;;;;;;348348;28;980;-57
2023/10/28 00:45:22;;;;;;;4.70;1.58;;;17.30;65.30;;;;;;348326;28;837;-57
2023/10/28 00:45:33;;;;;;;4.63;1.63;;;17.30;65.30;;;;;;348329;28;880;-56
2023/10/28 00:45:44;;;;;;;5.22;1.80;;;17.30;65.30;;;;;;348282;28;1592;-57
2023/10/28 00:45:56;;;;;;;6.15;1.90;;;17.30;65.30;;;;;;348278;28;1136;-56
2023/10/28 00:46:07;;;;;;;7.28;1.95;;;17.30;65.20;;;;;;348275;28;918;-56
2023/10/28 00:46:18;;;;;;;7.38;1.83;;;17.30;65.30;;;;;;348361;28;1035;-57
2023/10/28 00:46:29;;;;;;;6.32;2.03;;;17.30;65.40;;;;;;348321;28;1877;-58
2023/10/28 00:46:40;;;;;;;6.53;2.10;;;17.20;65.50;;;;;;348186;28;1464;-57
2023/10/28 00:46:51;;;;;;;6.93;2.30;;;17.30;65.50;;;;;;348380;28;980;-57
2023/10/28 00:47:02;;;;;;;7.40;2.22;;;17.20;65.50;;;;;;348313;28;912;-56
2023/10/28 00:47:13;;;;;;;6.97;2.08;;;17.20;65.50;;;;;;348276;28;1028;-57
2023/10/28 00:47:24;;;;;;;6.78;2.00;;;17.20;65.50;;;;;;348378;28;841;-57
2023/10/28 00:47:38;;;;;;;6.00;1.80;;;17.20;65.60;;;;;;348346;28;984;-57
2023/10/28 00:47:49;;;;;;;6.22;2.00;;;17.20;65.70;;;;;;348245;28;1024;-57
2023/10/28 00:47:59;;;;;;;6.32;2.15;;;17.20;65.80;;;;;;348333;28;995;-57
2023/10/28 00:48:10;;;;;;;7.00;2.13;;;17.30;65.80;;;;;;348356;28;1011;-57
2023/10/28 00:48:21;;;;;;;7.00;2.00;;;17.30;65.80;;;;;;348170;28;1482;-57
2023/10/28 00:48:32;;;;;;;7.46;1.88;;;17.30;65.80;;;;;;348363;28;1180;-57
2023/10/28 00:48:43;;;;;;;7.85;1.75;;;17.30;65.70;;;;;;348206;28;1903;-57
2023/10/28 00:48:55;;;;;;;8.15;1.90;;;17.30;65.50;;;;;;348324;28;1063;-57
2023/10/28 00:49:06;;;;;;;7.88;1.95;;;17.30;65.40;;;;;;348221;28;1030;-56
2023/10/28 00:49:16;;;;;;;7.35;2.20;;;17.30;65.40;;;;;;348342;28;992;-57
2023/10/28 00:49:29;;;;;;;8.25;2.15;;;17.20;65.50;;;;;;348345;28;817;-58
2023/10/28 00:49:42;;;;;;;7.78;2.42;;;17.20;65.50;;;;;;348214;28;1059;-56
2023/10/28 00:49:53;;;;;;;6.22;2.22;;;17.20;65.60;;;;;;348300;28;897;-57
2023/10/28 00:50:17;;;;;;;5.50;1.67;;;17.20;65.70;;;;;;348361;28;1016;-57
2023/10/28 00:50:30;;;;;;;5.97;1.52;;;17.20;65.60;;;;;;348267;28;1032;-59
2023/10/28 00:50:40;;;;;;;5.82;1.70;;;17.20;65.70;;;;;;348391;28;837;-57
2023/10/28 00:50:54;;;;;;;5.80;1.80;;;17.20;65.80;;;;;;348215;28;1012;-58
2023/10/28 00:51:04;;;;;;;6.75;2.10;;;17.20;65.80;;;;;;348348;28;921;-57
2023/10/28 00:51:15;;;;;;;6.77;2.10;;;17.20;65.80;;;;;;348307;28;977;-56
2023/10/28 00:51:27;;;;;;;6.18;1.95;;;17.20;65.90;;;;;;348294;28;1155;-56
2023/10/28 00:51:38;;;;;;;5.97;1.77;;;17.20;65.90;;;;;;348212;28;1485;-56
2023/10/28 00:51:49;;;;;;;7.57;2.00;;;17.20;65.90;;;;;;348317;28;1058;-56
2023/10/28 00:52:00;;;;;;;7.40;1.90;;;17.20;65.90;;;;;;348319;28;975;-57
2023/10/28 00:52:11;;;;;;;7.47;1.80;;;17.20;66.00;;;;;;348312;28;976;-57
2023/10/28 00:52:22;;;;;;;7.35;1.98;;;17.20;66.00;;;;;;348309;28;822;-58
2023/10/28 00:52:33;;;;;;;7.00;2.00;;;17.20;66.10;;;;;;348277;28;996;-57
2023/10/28 00:52:46;;;;;;;7.03;1.95;;;17.30;66.10;;;;;;348344;28;964;-57
2023/10/28 00:53:00;;;;;;;6.25;1.70;;;17.20;65.90;;;;;;348356;28;999;-57
2023/10/28 00:53:11;;;;;;;6.70;1.77;;;17.20;65.90;;;;;;348294;28;841;-57
2023/10/28 00:53:24;;;;;;;7.40;1.92;;;17.20;66.10;;;;;;348182;28;1306;-58
2023/10/28 00:53:35;;;;;;;6.10;1.90;;;17.20;66.10;;;;;;348339;28;956;-57
2023/10/28 00:53:46;;;;;;;6.50;1.98;;;17.30;66.10;;;;;;348318;28;983;-58
2023/10/28 00:53:57;;;;;;;6.10;1.90;;;17.30;66.00;;;;;;348329;28;885;-57
2023/10/28 00:54:08;;;;;;;6.43;2.00;;;17.30;66.10;;;;;;348237;28;982;-57
2023/10/28 00:54:19;;;;;;;5.80;2.00;;;17.30;66.10;;;;;;348266;28;1079;-57
2023/10/28 00:54:30;;;;;;;6.00;1.92;;;17.30;65.90;;;;;;348256;28;1028;-58
2023/10/28 00:54:41;;;;;;;6.60;1.90;;;17.30;65.90;;;;;;348233;28;1495;-56
2023/10/28 00:54:54;;;;;;;5.80;1.77;;;17.30;65.80;;;;;;348287;28;1094;-57
2023/10/28 00:55:05;;;;;;;6.05;1.90;;;17.30;65.70;;;;;;348239;28;1055;-59
2023/10/28 00:55:18;;;;;;;5.57;1.80;;;17.30;65.60;;;;;;348310;28;1791;-57
2023/10/28 00:55:30;;;;;;;6.30;1.83;;;17.30;65.60;;;;;;348290;28;1036;-56
2023/10/28 00:55:41;;;;;;;5.68;1.70;;;17.20;65.70;;;;;;348249;28;1457;-57
2023/10/28 00:55:54;;;;;;;5.38;1.67;;;17.30;65.70;;;;;;348167;28;1223;-58
2023/10/28 00:56:05;;;;;;;7.13;1.83;;;17.30;65.80;;;;;;348314;28;1115;-57
2023/10/28 00:56:17;;;;;;;8.35;1.88;;;17.30;65.80;;;;;;348268;28;861;-57
2023/10/28 00:56:28;;;;;;;7.82;1.73;;;17.30;65.80;;;;;;348306;28;1028;-58
2023/10/28 00:56:39;;;;;;;6.90;1.77;;;17.30;65.80;;;;;;348197;28;1066;-59
2023/10/28 00:56:50;;;;;;;6.93;2.00;;;17.20;65.70;;;;;;348247;28;1281;-58
2023/10/28 00:57:01;;;;;;;6.90;1.90;;;17.30;65.70;;;;;;348179;28;948;-57
2023/10/28 00:57:12;;;;;;;6.30;1.75;;;17.20;65.60;;;;;;348305;28;2190;-58
2023/10/28 00:57:25;;;;;;;5.77;1.63;;;17.30;65.60;;;;;;348248;28;852;-56
2023/10/28 00:57:41;;;;;;;5.97;1.70;;;17.30;65.70;;;;;;348276;28;1001;-57
2023/10/28 00:57:52;;;;;;;7.05;1.85;;;17.30;65.80;;;;;;348040;28;1131;-57
2023/10/28 00:58:03;;;;;;;6.77;1.87;;;17.30;65.90;;;;;;348354;28;897;-57
2023/10/28 00:58:13;;;;;;;5.68;1.80;;;17.30;65.80;;;;;;348283;28;983;-57
2023/10/28 00:58:24;;;;;;;5.65;1.77;;;17.30;65.70;;;;;;348170;28;1055;-57
2023/10/28 00:58:36;;;;;;;8.20;2.03;;;17.30;65.60;;;;;;348265;28;996;-57
2023/10/28 00:58:47;;;;;;;9.00;2.13;;;17.30;65.50;;;;;;348283;28;999;-57
2023/10/28 00:58:58;;;;;;;6.93;1.83;;;17.30;65.50;;;;;;348226;28;1082;-58
2023/10/28 00:59:09;;;;;;;6.05;1.60;;;17.30;65.40;;;;;;348340;28;1091;-58
2023/10/28 00:59:19;;;;;;;7.33;1.73;;;17.30;65.40;;;;;;348247;28;1183;-57
2023/10/28 00:59:30;;;;;;;7.63;2.08;;;17.30;65.30;;;;;;348271;28;1004;-57
2023/10/28 00:59:42;;;;;;;6.65;2.05;;;17.30;65.30;;;;;;348215;28;1522;-57
2023/10/28 00:59:54;;;;;;;5.85;1.75;;;17.30;65.40;;;;;;348248;28;1935;-56
2023/10/28 01:00:08;;;;;;;6.70;1.65;;;17.30;65.50;;;;;;348206;28;1021;-58
2023/10/28 01:00:20;;;;;;;6.53;1.80;;;17.30;65.50;;;;;;348266;28;1957;-57
2023/10/28 01:00:31;;;;;;;7.07;2.05;;;17.30;65.60;;;;;;348211;28;1000;-56
2023/10/28 01:00:41;;;;;;;6.15;2.15;;;17.30;65.60;;;;;;348318;28;924;-56
2023/10/28 01:00:52;;;;;;;6.05;1.90;;;17.30;65.70;;;;;;348241;28;927;-58
2023/10/28 01:01:03;;;;;;;6.80;1.77;;;17.30;65.70;;;;;;348261;28;1087;-58
2023/10/28 01:01:14;;;;;;;8.07;2.00;;;17.30;65.70;;;;;;348225;28;1103;-58
2023/10/28 01:01:25;;;;;;;6.97;2.20;;;17.30;65.70;;;;;;348210;28;1099;-58